createdAt,value
2018-04-18T00:00:02.254Z,69.48
2018-04-18T00:02:30.664Z,69.37
2018-04-18T00:04:59.091Z,69.45
2018-04-18T00:07:27.564Z,69.31
2018-04-18T00:09:56.006Z,69.08
2018-04-18T00:12:24.442Z,69.07
2018-04-18T00:14:52.921Z,69.04
2018-04-18T00:17:21.367Z,68.86
2018-04-18T00:19:49.800Z,68.76
2018-04-18T00:22:18.279Z,69.06
2018-04-18T00:24:46.709Z,68.98
2018-04-18T00:27:15.149Z,69.05
2018-04-18T00:29:43.613Z,69.00
2018-04-18T00:32:12.048Z,68.85
2018-04-18T00:34:40.477Z,68.88
2018-04-18T00:37:08.962Z,69.18
2018-04-18T00:39:37.380Z,69.13
2018-04-18T00:42:05.816Z,69.28
2018-04-18T00:44:34.284Z,69.27
2018-04-18T00:47:02.721Z,69.30
2018-04-18T00:49:31.156Z,69.24
2018-04-18T00:51:59.625Z,69.48
2018-04-18T00:54:28.075Z,69.45
2018-04-18T00:56:56.516Z,69.17
2018-04-18T00:59:24.993Z,69.10
2018-04-18T01:01:53.437Z,69.16
2018-04-18T01:04:21.861Z,69.20
2018-04-18T01:06:50.348Z,69.74
2018-04-18T01:09:18.776Z,69.79
2018-04-18T01:11:47.229Z,69.87
2018-04-18T01:14:15.720Z,70.29
2018-04-18T01:16:44.170Z,70.37
2018-04-18T01:19:12.629Z,70.30
2018-04-18T01:21:41.108Z,70.48
2018-04-18T01:24:09.537Z,70.72
2018-04-18T01:26:37.965Z,70.84
2018-04-18T01:29:06.670Z,70.85
2018-04-18T01:31:35.108Z,70.97
2018-04-18T01:34:03.852Z,71.31
2018-04-18T01:36:32.361Z,71.23
2018-04-18T01:39:00.816Z,71.24
2018-04-18T01:41:29.312Z,71.33
2018-04-18T01:43:57.865Z,71.48
2018-04-18T01:46:26.301Z,71.35
2018-04-18T01:49:06.539Z,71.59
2018-04-18T01:51:34.956Z,71.51
2018-04-18T01:54:03.421Z,71.68
2018-04-18T01:56:31.913Z,71.53
2018-04-18T01:59:00.343Z,71.62
2018-04-18T02:01:29.058Z,71.71
2018-04-18T02:03:57.545Z,72.08
2018-04-18T02:06:25.979Z,72.27
2018-04-18T02:08:54.448Z,72.21
2018-04-18T02:11:22.924Z,72.45
2018-04-18T02:13:51.350Z,72.22
2018-04-18T02:16:19.808Z,72.38
2018-04-18T02:18:48.309Z,72.32
2018-04-18T02:21:16.746Z,72.33
2018-04-18T02:23:45.173Z,72.44
2018-04-18T02:26:13.676Z,72.36
2018-04-18T02:28:42.116Z,72.58
2018-04-18T02:31:10.582Z,72.68
2018-04-18T02:33:39.081Z,72.76
2018-04-18T02:36:07.854Z,72.55
2018-04-18T02:38:36.308Z,72.66
2018-04-18T02:41:04.816Z,72.80
2018-04-18T02:43:33.262Z,73.42
2018-04-18T02:46:01.693Z,73.02
2018-04-18T02:48:30.221Z,73.28
2018-04-18T02:50:58.675Z,73.35
2018-04-18T02:53:27.109Z,73.03
2018-04-18T02:55:55.590Z,73.26
2018-04-18T02:58:24.016Z,73.26
2018-04-18T03:00:52.437Z,73.51
2018-04-18T03:03:20.936Z,73.68
2018-04-18T03:05:49.402Z,73.77
2018-04-18T03:08:17.841Z,73.73
2018-04-18T03:10:46.479Z,73.87
2018-04-18T03:13:14.916Z,73.78
2018-04-18T03:15:43.349Z,74.12
2018-04-18T03:18:11.819Z,74.44
2018-04-18T03:20:40.264Z,74.53
2018-04-18T03:23:08.688Z,74.70
2018-04-18T03:25:37.157Z,74.57
2018-04-18T03:28:05.581Z,74.47
2018-04-18T03:30:34.008Z,74.63
2018-04-18T03:33:02.485Z,74.75
2018-04-18T03:35:30.916Z,75.03
2018-04-18T03:37:59.344Z,74.84
2018-04-18T03:40:27.813Z,75.12
2018-04-18T03:42:56.245Z,74.95
2018-04-18T03:45:24.688Z,74.71
2018-04-18T03:47:53.184Z,75.31
2018-04-18T03:50:21.625Z,75.22
2018-04-18T03:52:50.096Z,75.15
2018-04-18T03:55:18.567Z,75.71
2018-04-18T03:57:47.006Z,75.67
2018-04-18T04:00:15.437Z,75.56
2018-04-18T04:02:43.936Z,75.22
2018-04-18T04:05:12.365Z,75.27
2018-04-18T04:07:40.796Z,75.35
2018-04-18T04:10:09.323Z,75.23
2018-04-18T04:12:37.780Z,75.41
2018-04-18T04:15:06.200Z,75.27
2018-04-18T04:17:46.396Z,75.33
2018-04-18T04:20:26.649Z,75.24
2018-04-18T04:23:06.837Z,75.44
2018-04-18T04:25:35.297Z,75.20
2018-04-18T04:28:03.725Z,75.19
2018-04-18T04:30:32.200Z,75.46
2018-04-18T04:33:00.664Z,75.36
2018-04-18T04:35:29.097Z,75.90
2018-04-18T04:37:57.569Z,75.53
2018-04-18T04:40:26.000Z,75.64
2018-04-18T04:42:54.440Z,75.53
2018-04-18T04:45:22.912Z,75.44
2018-04-18T04:47:51.343Z,75.61
2018-04-18T04:50:19.780Z,75.64
2018-04-18T04:52:48.267Z,75.51
2018-04-18T04:55:16.693Z,75.33
2018-04-18T04:57:45.136Z,75.77
2018-04-18T05:00:13.609Z,75.77
2018-04-18T05:02:42.037Z,75.22
2018-04-18T05:05:10.469Z,74.97
2018-04-18T05:07:39.098Z,74.85
2018-04-18T05:10:07.540Z,74.40
2018-04-18T05:12:35.986Z,74.40
2018-04-18T05:15:04.513Z,74.50
2018-04-18T05:17:32.968Z,74.33
2018-04-18T05:20:01.394Z,74.48
2018-04-18T05:22:29.860Z,74.39
2018-04-18T05:24:58.294Z,74.11
2018-04-18T05:27:26.729Z,73.92
2018-04-18T05:29:55.216Z,73.98
2018-04-18T05:32:23.645Z,73.99
2018-04-18T05:34:52.081Z,73.72
2018-04-18T05:37:20.574Z,73.58
2018-04-18T05:39:49.029Z,73.94
2018-04-18T05:42:17.480Z,73.42
2018-04-18T05:44:45.961Z,73.25
2018-04-18T05:47:14.388Z,72.67
2018-04-18T05:49:42.824Z,72.58
2018-04-18T05:52:11.335Z,72.69
2018-04-18T05:54:39.783Z,72.21
2018-04-18T05:57:08.228Z,71.99
2018-04-18T05:59:36.709Z,72.10
2018-04-18T06:02:05.169Z,71.63
2018-04-18T06:04:33.592Z,71.28
2018-04-18T06:07:02.063Z,71.27
2018-04-18T06:09:30.488Z,71.06
2018-04-18T06:11:58.913Z,71.27
2018-04-18T06:14:27.372Z,71.07
2018-04-18T06:16:55.810Z,70.45
2018-04-18T06:19:24.290Z,70.53
2018-04-18T06:21:52.763Z,70.04
2018-04-18T06:24:21.220Z,69.85
2018-04-18T06:26:49.658Z,69.67
2018-04-18T06:29:18.148Z,69.57
2018-04-18T06:31:46.579Z,69.40
2018-04-18T06:34:15.011Z,68.63
2018-04-18T06:36:43.493Z,68.47
2018-04-18T06:39:11.937Z,68.21
2018-04-18T06:41:40.387Z,67.82
2018-04-18T06:44:08.876Z,67.63
2018-04-18T06:46:37.300Z,67.28
2018-04-18T06:49:05.737Z,66.66
2018-04-18T06:51:34.208Z,66.30
2018-04-18T06:54:02.674Z,66.30
2018-04-18T06:56:31.143Z,66.10
2018-04-18T06:58:59.636Z,65.87
2018-04-18T07:01:28.081Z,65.46
2018-04-18T07:03:56.512Z,66.51
2018-04-18T07:06:25.001Z,65.59
2018-04-18T07:08:53.452Z,65.35
2018-04-18T07:11:21.896Z,64.63
2018-04-18T07:13:50.512Z,64.81
2018-04-18T07:16:18.952Z,64.32
2018-04-18T07:18:47.392Z,64.11
2018-04-18T07:21:15.881Z,63.34
2018-04-18T07:23:44.314Z,63.56
2018-04-18T07:26:12.752Z,64.08
2018-04-18T07:28:41.224Z,63.92
2018-04-18T07:31:09.647Z,62.96
2018-04-18T07:33:38.076Z,62.80
2018-04-18T07:36:06.553Z,61.94
2018-04-18T07:38:34.988Z,62.08
2018-04-18T07:41:03.415Z,62.00
2018-04-18T07:43:31.887Z,61.25
2018-04-18T07:46:00.318Z,61.47
2018-04-18T07:48:28.745Z,61.63
2018-04-18T07:50:57.241Z,58.94
2018-04-18T07:53:25.681Z,58.73
2018-04-18T07:55:54.108Z,59.33
2018-04-18T07:58:22.597Z,59.31
2018-04-18T08:00:51.028Z,57.28
2018-04-18T08:03:19.462Z,57.26
2018-04-18T08:05:47.956Z,58.00
2018-04-18T08:08:16.404Z,56.15
2018-04-18T08:10:44.833Z,55.10
2018-04-18T08:13:13.296Z,53.38
2018-04-18T08:15:41.718Z,53.12
2018-04-18T08:18:10.155Z,52.48
2018-04-18T08:20:38.626Z,51.94
2018-04-18T08:23:07.076Z,51.43
2018-04-18T08:25:35.525Z,51.66
2018-04-18T08:28:04.008Z,52.26
2018-04-18T08:30:32.458Z,51.00
2018-04-18T08:33:00.913Z,51.71
2018-04-18T08:35:29.424Z,51.79
2018-04-18T08:37:57.848Z,52.18
2018-04-18T08:40:26.297Z,50.63
2018-04-18T08:42:54.791Z,49.83
2018-04-18T08:45:23.229Z,50.54
2018-04-18T08:47:51.668Z,49.92
2018-04-18T08:50:20.147Z,50.14
2018-04-18T08:52:48.589Z,49.96
2018-04-18T08:55:17.024Z,49.16
2018-04-18T08:57:45.488Z,48.28
2018-04-18T09:00:13.934Z,48.04
2018-04-18T09:02:42.404Z,47.61
2018-04-18T09:05:10.873Z,48.08
2018-04-18T09:07:39.311Z,49.59
2018-04-18T09:10:07.765Z,47.60
2018-04-18T09:12:36.240Z,48.80
2018-04-18T09:15:04.665Z,48.79
2018-04-18T09:17:33.102Z,46.79
2018-04-18T09:20:01.570Z,46.97
2018-04-18T09:22:30.008Z,46.57
2018-04-18T09:24:58.444Z,47.57
2018-04-18T09:27:26.924Z,46.05
2018-04-18T09:29:55.361Z,47.20
2018-04-18T09:32:23.792Z,45.99
2018-04-18T09:34:52.282Z,44.45
2018-04-18T09:37:20.744Z,43.96
2018-04-18T09:39:49.165Z,43.75
2018-04-18T09:42:17.629Z,42.95
2018-04-18T09:44:46.056Z,42.71
2018-04-18T09:47:14.496Z,42.53
2018-04-18T09:49:42.973Z,42.85
2018-04-18T09:52:11.404Z,41.82
2018-04-18T09:54:39.834Z,42.09
2018-04-18T09:57:08.304Z,41.72
2018-04-18T09:59:36.764Z,41.58
2018-04-18T10:02:10.857Z,42.12
2018-04-18T10:04:45.036Z,42.19
2018-04-18T10:07:13.508Z,42.37
2018-04-18T10:09:41.937Z,41.79
2018-04-18T10:12:10.369Z,42.91
2018-04-18T10:14:38.835Z,42.42
2018-04-18T10:17:07.293Z,42.80
2018-04-18T10:19:35.737Z,39.97
2018-04-18T10:22:04.228Z,41.43
2018-04-18T10:24:32.670Z,42.23
2018-04-18T10:27:01.124Z,39.17
2018-04-18T10:29:29.628Z,38.15
2018-04-18T10:31:58.061Z,37.41
2018-04-18T10:34:26.521Z,38.17
2018-04-18T10:36:55.016Z,37.81
2018-04-18T10:39:23.480Z,36.71
2018-04-18T10:41:51.918Z,37.68
2018-04-18T10:44:20.411Z,39.46
2018-04-18T10:46:48.866Z,37.94
2018-04-18T10:49:17.313Z,40.00
2018-04-18T10:51:46.088Z,39.52
2018-04-18T10:54:14.548Z,38.29
2018-04-18T10:56:42.981Z,37.17
2018-04-18T10:59:11.460Z,36.54
2018-04-18T11:01:39.897Z,37.79
2018-04-18T11:04:08.353Z,37.90
2018-04-18T11:06:36.864Z,37.24
2018-04-18T11:09:06.317Z,37.43
2018-04-18T11:11:34.760Z,35.47
2018-04-18T11:14:03.323Z,36.26
2018-04-18T11:16:31.784Z,35.65
2018-04-18T11:19:00.236Z,36.04
2018-04-18T11:21:28.708Z,35.95
2018-04-18T11:23:57.142Z,35.99
2018-04-18T11:26:25.568Z,37.75
2018-04-18T11:28:54.080Z,37.67
2018-04-18T11:31:22.513Z,35.87
2018-04-18T11:33:50.956Z,38.59
2018-04-18T11:36:19.428Z,35.76
2018-04-18T11:38:47.855Z,36.86
2018-04-18T11:41:16.336Z,36.38
2018-04-18T11:43:44.834Z,35.90
2018-04-18T11:46:13.347Z,36.49
2018-04-18T11:48:41.825Z,35.74
2018-04-18T11:51:10.356Z,36.17
2018-04-18T11:53:38.816Z,36.08
2018-04-18T11:56:07.264Z,37.52
2018-04-18T11:58:35.750Z,35.55
2018-04-18T12:01:04.209Z,35.65
2018-04-18T12:03:32.641Z,36.26
2018-04-18T12:06:01.129Z,35.74
2018-04-18T12:08:29.585Z,35.02
2018-04-18T12:10:58.036Z,34.36
2018-04-18T12:13:26.616Z,35.06
2018-04-18T12:15:55.048Z,34.85
2018-04-18T12:18:23.495Z,35.83
2018-04-18T12:20:52.039Z,33.87
2018-04-18T12:23:20.495Z,35.01
2018-04-18T12:25:48.925Z,34.12
2018-04-18T12:28:17.411Z,33.88
2018-04-18T12:30:45.840Z,35.59
2018-04-18T12:33:14.323Z,33.96
2018-04-18T12:35:42.790Z,33.45
2018-04-18T12:38:11.240Z,33.46
2018-04-18T12:40:39.694Z,33.65
2018-04-18T12:43:08.190Z,33.93
2018-04-18T12:45:36.613Z,35.17
2018-04-18T12:48:05.062Z,34.01
2018-04-18T12:50:33.549Z,33.88
2018-04-18T12:53:02.321Z,33.06
2018-04-18T12:55:30.795Z,33.57
2018-04-18T12:57:59.282Z,32.92
2018-04-18T13:00:27.713Z,33.03
2018-04-18T13:02:56.163Z,33.22
2018-04-18T13:05:24.647Z,32.90
2018-04-18T13:07:53.125Z,32.69
2018-04-18T13:10:21.604Z,35.72
2018-04-18T13:12:50.094Z,36.47
2018-04-18T13:15:18.541Z,35.99
2018-04-18T13:17:46.988Z,35.45
2018-04-18T13:20:15.486Z,33.92
2018-04-18T13:22:43.948Z,33.71
2018-04-18T13:25:12.425Z,34.30
2018-04-18T13:27:40.912Z,35.87
2018-04-18T13:30:09.356Z,36.79
2018-04-18T13:32:37.792Z,36.22
2018-04-18T13:35:06.288Z,36.20
2018-04-18T13:37:34.753Z,36.26
2018-04-18T13:40:03.206Z,36.73
2018-04-18T13:42:31.716Z,37.47
2018-04-18T13:45:00.210Z,37.90
2018-04-18T13:47:28.681Z,37.28
2018-04-18T13:49:57.189Z,37.60
2018-04-18T13:52:25.640Z,37.38
2018-04-18T13:54:54.132Z,36.63
2018-04-18T13:57:22.593Z,37.94
2018-04-18T13:59:51.029Z,37.12
2018-04-18T14:02:19.460Z,37.41
2018-04-18T14:04:47.944Z,38.00
2018-04-18T14:07:16.732Z,36.64
2018-04-18T14:09:45.176Z,37.76
2018-04-18T14:12:13.655Z,37.50
2018-04-18T14:14:42.136Z,37.13
2018-04-18T14:17:10.621Z,38.15
2018-04-18T14:19:39.316Z,38.35
2018-04-18T14:22:07.764Z,38.69
2018-04-18T14:24:36.217Z,38.26
2018-04-18T14:27:04.699Z,39.11
2018-04-18T14:29:33.137Z,38.90
2018-04-18T14:32:01.644Z,38.37
2018-04-18T14:34:30.114Z,38.71
2018-04-18T14:36:58.581Z,38.92
2018-04-18T14:39:27.016Z,38.60
2018-04-18T14:41:55.689Z,40.46
2018-04-18T14:44:24.137Z,39.78
2018-04-18T14:46:52.569Z,39.90
2018-04-18T14:49:21.061Z,40.77
2018-04-18T14:51:49.512Z,40.55
2018-04-18T14:54:17.981Z,41.06
2018-04-18T14:56:46.455Z,40.95
2018-04-18T14:59:14.904Z,40.70
2018-04-18T15:01:43.348Z,40.41
2018-04-18T15:04:11.908Z,40.53
2018-04-18T15:06:40.379Z,42.77
2018-04-18T15:09:08.817Z,41.42
2018-04-18T15:11:37.497Z,41.56
2018-04-18T15:14:05.953Z,42.33
2018-04-18T15:16:34.396Z,42.59
2018-04-18T15:19:02.868Z,42.23
2018-04-18T15:21:31.304Z,41.85
2018-04-18T15:23:59.752Z,42.15
2018-04-18T15:26:28.225Z,42.11
2018-04-18T15:28:56.664Z,42.96
2018-04-18T15:31:25.162Z,42.35
2018-04-18T15:33:53.660Z,42.60
2018-04-18T15:36:22.085Z,42.23
2018-04-18T15:38:50.520Z,43.31
2018-04-18T15:41:19.013Z,42.72
2018-04-18T15:43:47.449Z,42.38
2018-04-18T15:46:15.888Z,42.24
2018-04-18T15:48:44.578Z,43.81
2018-04-18T15:51:13.029Z,43.70
2018-04-18T15:53:41.481Z,43.35
2018-04-18T15:56:09.973Z,43.09
2018-04-18T15:58:38.418Z,44.33
2018-04-18T16:01:06.904Z,43.89
2018-04-18T16:03:35.393Z,44.39
2018-04-18T16:06:03.829Z,44.03
2018-04-18T16:08:32.285Z,44.30
2018-04-18T16:11:00.766Z,43.53
2018-04-18T16:13:29.231Z,44.21
2018-04-18T16:15:57.683Z,43.79
2018-04-18T16:18:26.152Z,44.48
2018-04-18T16:20:54.688Z,44.69
2018-04-18T16:23:23.132Z,44.52
2018-04-18T16:25:51.624Z,44.73
2018-04-18T16:28:20.068Z,45.19
2018-04-18T16:30:48.500Z,45.51
2018-04-18T16:33:16.981Z,45.11
2018-04-18T16:35:45.456Z,45.25
2018-04-18T16:38:13.897Z,45.89
2018-04-18T16:40:42.365Z,45.64
2018-04-18T16:43:11.080Z,46.49
2018-04-18T16:45:39.508Z,45.61
2018-04-18T16:48:07.994Z,45.48
2018-04-18T16:50:36.463Z,46.36
2018-04-18T16:53:04.882Z,46.28
2018-04-18T16:55:33.375Z,45.74
2018-04-18T16:58:01.819Z,45.82
2018-04-18T17:00:30.272Z,45.85
2018-04-18T17:02:58.765Z,45.69
2018-04-18T17:05:27.188Z,46.54
2018-04-18T17:07:55.632Z,46.41
2018-04-18T17:10:24.116Z,46.64
2018-04-18T17:12:52.568Z,46.83
2018-04-18T17:15:20.984Z,46.13
2018-04-18T17:17:49.493Z,45.84
2018-04-18T17:20:17.919Z,45.75
2018-04-18T17:22:46.340Z,46.28
2018-04-18T17:25:14.841Z,47.06
2018-04-18T17:27:43.308Z,47.11
2018-04-18T17:30:11.749Z,46.46
2018-04-18T17:32:40.233Z,46.89
2018-04-18T17:35:08.664Z,47.02
2018-04-18T17:37:37.100Z,47.35
2018-04-18T17:40:05.619Z,47.27
2018-04-18T17:42:34.041Z,47.19
2018-04-18T17:45:02.478Z,46.56
2018-04-18T17:47:30.984Z,46.60
2018-04-18T17:49:59.445Z,46.91
2018-04-18T17:52:27.897Z,46.89
2018-04-18T17:54:56.416Z,47.57
2018-04-18T17:57:24.844Z,47.02
2018-04-18T17:59:53.275Z,46.88
2018-04-18T18:02:21.761Z,47.23
2018-04-18T18:04:50.180Z,47.14
2018-04-18T18:07:18.604Z,47.23
2018-04-18T18:09:47.096Z,47.17
2018-04-18T18:12:15.533Z,47.74
2018-04-18T18:14:44.212Z,48.45
2018-04-18T18:17:12.905Z,47.88
2018-04-18T18:19:41.360Z,48.61
2018-04-18T18:22:09.828Z,47.78
2018-04-18T18:24:38.327Z,48.23
2018-04-18T18:27:06.798Z,47.69
2018-04-18T18:29:35.261Z,47.36
2018-04-18T18:32:03.770Z,47.15
2018-04-18T18:34:32.213Z,47.39
2018-04-18T18:37:00.664Z,47.03
2018-04-18T18:39:29.145Z,46.72
2018-04-18T18:41:57.582Z,46.58
2018-04-18T18:44:26.037Z,47.16
2018-04-18T18:46:54.513Z,46.91
2018-04-18T18:49:22.946Z,47.67
2018-04-18T18:51:51.408Z,47.35
2018-04-18T18:54:19.924Z,47.55
2018-04-18T18:56:48.413Z,47.18
2018-04-18T18:59:17.755Z,47.23
2018-04-18T19:01:46.286Z,47.50
2018-04-18T19:04:14.744Z,47.20
2018-04-18T19:06:43.163Z,47.19
2018-04-18T19:09:11.674Z,47.03
2018-04-18T19:11:40.119Z,47.00
2018-04-18T19:14:08.564Z,46.71
2018-04-18T19:16:37.137Z,46.56
2018-04-18T19:19:05.574Z,46.22
2018-04-18T19:21:34.068Z,48.07
2018-04-18T19:24:02.570Z,49.00
2018-04-18T19:26:31.009Z,49.62
2018-04-18T19:28:59.435Z,50.64
2018-04-18T19:31:27.909Z,51.03
2018-04-18T19:33:56.369Z,51.38
2018-04-18T19:36:24.821Z,51.77
2018-04-18T19:38:53.305Z,52.28
2018-04-18T19:41:21.756Z,52.44
2018-04-18T19:43:50.196Z,52.72
2018-04-18T19:46:18.707Z,52.82
2018-04-18T19:48:47.165Z,53.31
2018-04-18T19:51:15.600Z,54.47
2018-04-18T19:53:44.076Z,54.16
2018-04-18T19:56:12.533Z,54.66
2018-04-18T19:58:40.970Z,54.57
2018-04-18T20:01:09.468Z,54.74
2018-04-18T20:03:37.911Z,55.61
2018-04-18T20:06:06.372Z,56.28
2018-04-18T20:08:34.868Z,56.83
2018-04-18T20:11:03.369Z,57.19
2018-04-18T20:13:31.813Z,57.20
2018-04-18T20:16:00.323Z,57.83
2018-04-18T20:18:28.800Z,58.49
2018-04-18T20:20:57.237Z,58.39
2018-04-18T20:23:25.717Z,58.26
2018-04-18T20:25:54.210Z,58.11
2018-04-18T20:28:22.704Z,57.74
2018-04-18T20:30:51.140Z,57.70
2018-04-18T20:33:19.569Z,57.72
2018-04-18T20:35:47.994Z,57.15
2018-04-18T20:38:16.474Z,57.00
2018-04-18T20:40:44.927Z,57.51
2018-04-18T20:43:13.361Z,57.42
2018-04-18T20:45:41.823Z,57.50
2018-04-18T20:48:10.245Z,57.53
2018-04-18T20:50:38.668Z,57.67
2018-04-18T20:53:07.154Z,57.63
2018-04-18T20:55:35.633Z,57.65
2018-04-18T20:58:04.080Z,57.73
2018-04-18T21:00:32.598Z,57.76
2018-04-18T21:03:01.051Z,57.36
2018-04-18T21:05:29.509Z,57.61
2018-04-18T21:07:58.012Z,57.49
2018-04-18T21:10:26.471Z,57.84
2018-04-18T21:12:54.920Z,58.08
2018-04-18T21:15:23.421Z,57.78
2018-04-18T21:17:51.867Z,57.69
2018-04-18T21:20:20.300Z,58.01
2018-04-18T21:22:48.769Z,58.10
2018-04-18T21:25:17.205Z,58.20
2018-04-18T21:27:45.708Z,58.69
2018-04-18T21:30:14.170Z,59.12
2018-04-18T21:32:42.618Z,59.75
2018-04-18T21:35:11.453Z,59.98
2018-04-18T21:37:39.930Z,59.94
2018-04-18T21:40:08.369Z,60.02
2018-04-18T21:42:36.804Z,60.08
2018-04-18T21:45:05.292Z,60.35
2018-04-18T21:47:33.726Z,60.54
2018-04-18T21:50:02.161Z,60.79
2018-04-18T21:52:30.694Z,61.00
2018-04-18T21:54:59.153Z,61.52
2018-04-18T21:57:27.588Z,61.31
2018-04-18T21:59:56.098Z,61.75
2018-04-18T22:02:24.528Z,62.15
2018-04-18T22:04:52.958Z,62.04
2018-04-18T22:07:21.452Z,62.27
2018-04-18T22:09:49.913Z,62.33
2018-04-18T22:12:18.355Z,62.52
2018-04-18T22:14:46.841Z,62.67
2018-04-18T22:17:15.285Z,63.09
2018-04-18T22:19:43.720Z,63.35
2018-04-18T22:22:12.245Z,63.67
2018-04-18T22:24:40.705Z,63.90
2018-04-18T22:27:09.169Z,64.05
2018-04-18T22:29:37.641Z,64.40
2018-04-18T22:32:06.076Z,64.90
2018-04-18T22:34:34.504Z,65.33
2018-04-18T22:37:03.005Z,65.65
2018-04-18T22:39:31.453Z,65.82
2018-04-18T22:41:59.889Z,66.04
2018-04-18T22:44:28.360Z,65.95
2018-04-18T22:46:56.850Z,66.60
2018-04-18T22:49:25.273Z,66.58
2018-04-18T22:51:53.763Z,66.73
2018-04-18T22:54:22.200Z,67.29
2018-04-18T22:56:50.665Z,67.37
2018-04-18T22:59:19.132Z,67.65
2018-04-18T23:01:47.549Z,67.85
2018-04-18T23:04:15.998Z,67.92
2018-04-18T23:06:44.481Z,67.71
2018-04-18T23:09:12.914Z,68.20
2018-04-18T23:11:41.357Z,67.90
2018-04-18T23:14:09.885Z,68.03
2018-04-18T23:16:38.330Z,68.34
2018-04-18T23:19:07.084Z,68.85
2018-04-18T23:21:35.587Z,69.04
2018-04-18T23:24:04.032Z,69.17
2018-04-18T23:26:32.457Z,69.72
2018-04-18T23:29:00.950Z,70.02
2018-04-18T23:31:29.397Z,70.14
2018-04-18T23:33:57.832Z,70.39
2018-04-18T23:36:26.322Z,71.07
2018-04-18T23:38:54.765Z,71.20
2018-04-18T23:41:23.216Z,71.53
2018-04-18T23:43:51.680Z,71.63
2018-04-18T23:46:20.114Z,71.45
2018-04-18T23:48:48.540Z,71.47
2018-04-18T23:51:17.037Z,71.53
2018-04-18T23:53:45.475Z,71.75
2018-04-18T23:56:13.908Z,71.96
2018-04-18T23:58:42.639Z,71.87
